Time;durP1;ratioP1;P1;durP2;ratioP2;P2;SDS_P1;SDS_P2;PMS_P1;PMS_P2;Temp;Humidity;BMP_temperature;BMP_pressure;BME280_temperature;BME280_humidity;BME280_pressure;Samples;Min_cycle;Max_cycle;Signal;HPM_P1;HPM_P2
2023/12/08 00:00:34;;;;;;;16.17;8.07;;;;;;;-10.31;63.17;101217.28;5111892;28;20055;-63
2023/12/08 00:02:59;;;;;;;15.60;7.78;;;;;;;-10.46;62.36;101215.31;5110665;28;20035;-63
2023/12/08 00:05:25;;;;;;;15.10;7.30;;;;;;;-10.46;61.99;101217.88;5111470;28;20070;-64
2023/12/08 00:07:51;;;;;;;13.88;7.53;;;;;;;-10.39;62.66;101205.66;5112010;28;20069;-63
2023/12/08 00:10:16;;;;;;;14.23;8.23;;;;;;;-10.34;62.28;101209.72;5111366;28;20039;-64
2023/12/08 00:12:43;;;;;;;15.98;7.75;;;;;;;-10.27;62.65;101209.47;5111609;28;20446;-63
2023/12/08 00:15:09;;;;;;;20.85;7.97;;;;;;;-10.19;62.71;101204.88;5110250;28;20035;-62
2023/12/08 00:17:35;;;;;;;13.75;6.45;;;;;;;-10.15;62.38;101219.22;5111614;28;20044;-63
2023/12/08 00:20:00;;;;;;;17.13;8.90;;;;;;;-10.20;62.88;101205.75;5110486;28;20047;-64
2023/12/08 00:22:27;;;;;;;13.25;7.00;;;;;;;-10.20;62.48;101211.72;5099492;28;20094;-64
2023/12/08 00:24:53;;;;;;;18.83;8.80;;;;;;;-10.20;62.28;101209.16;5093558;28;20114;-65
2023/12/08 00:27:18;;;;;;;17.35;8.20;;;;;;;-10.20;61.58;101214.28;5110439;28;20273;-63
2023/12/08 00:29:44;;;;;;;15.63;7.38;;;;;;;-10.25;61.75;101213.63;5111468;28;20524;-63
2023/12/08 00:32:09;;;;;;;14.48;7.38;;;;;;;-10.11;62.12;101219.06;5111526;28;20039;-62
2023/12/08 00:34:35;;;;;;;17.73;8.20;;;;;;;-9.99;61.84;101222.03;5111688;28;20050;-66
2023/12/08 00:37:00;;;;;;;17.63;7.80;;;;;;;-9.90;62.11;101225.06;5111209;28;20035;-63
2023/12/08 00:39:26;;;;;;;19.05;8.32;;;;;;;-9.87;61.31;101218.97;5098832;28;20047;-63
2023/12/08 00:41:52;;;;;;;13.05;7.85;;;;;;;-9.96;62.18;101220.19;5090983;28;20044;-64
2023/12/08 00:44:17;;;;;;;16.23;9.10;;;;;;;-10.06;62.74;101217.16;5090973;28;20048;-63
2023/12/08 00:46:43;;;;;;;17.88;8.23;;;;;;;-10.12;62.25;101219.94;5103140;28;20035;-64
2023/12/08 00:49:08;;;;;;;17.30;8.00;;;;;;;-10.15;62.17;101217.50;5109970;28;20043;-63
2023/12/08 00:51:34;;;;;;;18.55;8.95;;;;;;;-10.18;62.44;101202.22;5109773;28;20139;-64
2023/12/08 00:54:00;;;;;;;20.35;8.73;;;;;;;-10.07;62.48;101212.91;5092977;28;20050;-63
2023/12/08 00:56:25;;;;;;;19.15;8.38;;;;;;;-10.03;62.81;101202.50;5108337;28;20078;-64
2023/12/08 00:58:51;;;;;;;17.38;8.05;;;;;;;-9.97;62.58;101203.13;5071222;28;20075;-63
2023/12/08 01:01:19;;;;;;;16.40;7.80;;;;;;;-9.99;62.59;101201.50;5077824;28;20627;-64
2023/12/08 01:03:45;;;;;;;16.45;7.72;;;;;;;-9.99;62.65;101201.50;5112831;28;20517;-63
2023/12/08 01:06:11;;;;;;;18.02;8.35;;;;;;;-10.04;63.05;101198.28;5096777;28;20036;-61
2023/12/08 01:08:37;;;;;;;15.60;7.22;;;;;;;-9.95;64.26;101201.31;5115120;28;20050;-64
2023/12/08 01:11:03;;;;;;;15.32;8.40;;;;;;;-9.92;62.93;101198.63;5113436;28;20104;-65
2023/12/08 01:13:28;;;;;;;14.80;7.78;;;;;;;-9.93;63.31;101198.69;5113288;28;20042;-64
2023/12/08 01:15:54;;;;;;;13.15;6.90;;;;;;;-9.99;63.21;101188.69;5111443;28;20514;-65
2023/12/08 01:18:21;;;;;;;17.63;7.07;;;;;;;-10.03;63.57;101180.25;5106934;28;20043;-61
2023/12/08 01:20:47;;;;;;;15.60;7.07;;;;;;;-10.01;63.38;101180.22;5113237;28;20605;-63
2023/12/08 01:23:13;;;;;;;8.27;6.05;;;;;;;-10.07;63.62;101182.13;5109448;28;20040;-64
2023/12/08 01:25:38;;;;;;;14.95;7.35;;;;;;;-10.23;64.02;101177.66;5077873;28;20044;-64
2023/12/08 01:28:04;;;;;;;15.35;7.55;;;;;;;-10.26;64.58;101181.19;5096782;28;20044;-63
2023/12/08 01:30:30;;;;;;;15.20;7.20;;;;;;;-10.26;65.09;101183.75;5078543;28;20050;-64
2023/12/08 01:32:55;;;;;;;19.35;8.55;;;;;;;-10.20;64.15;101180.94;5103423;28;20036;-63
2023/12/08 01:35:21;;;;;;;12.18;6.88;;;;;;;-10.36;64.77;101177.34;5111792;28;20038;-63
2023/12/08 01:37:46;;;;;;;15.35;7.63;;;;;;;-10.39;65.06;101174.91;5087189;28;20494;-61
2023/12/08 01:40:12;;;;;;;14.65;7.32;;;;;;;-10.37;65.13;101179.06;5114250;28;20051;-65
2023/12/08 01:42:38;;;;;;;11.70;6.90;;;;;;;-10.43;64.50;101178.47;5114074;28;20074;-64
2023/12/08 01:45:04;;;;;;;16.08;7.03;;;;;;;-10.47;64.99;101175.22;5114478;28;20586;-65
2023/12/08 01:47:30;;;;;;;19.05;7.93;;;;;;;-10.57;65.06;101181.56;5112644;28;20294;-64
2023/12/08 01:49:56;;;;;;;17.38;7.78;;;;;;;-10.57;65.53;101181.56;5113946;28;20485;-62
2023/12/08 01:52:23;;;;;;;14.25;6.05;;;;;;;-10.57;65.19;101179.84;5113915;28;20046;-62
2023/12/08 01:54:56;;;;;;;13.55;6.10;;;;;;;-10.64;65.33;101178.41;5083644;28;20047;-65
2023/12/08 01:57:22;;;;;;;12.27;6.75;;;;;;;-10.64;65.08;101180.13;5076413;28;20032;-63
2023/12/08 01:59:48;;;;;;;13.60;7.25;;;;;;;-10.60;66.20;101172.25;5108470;28;20465;-63
2023/12/08 02:02:14;;;;;;;12.00;6.55;;;;;;;-10.66;65.14;101176.78;5093550;28;20044;-63
2023/12/08 02:04:44;;;;;;;15.82;7.28;;;;;;;-10.65;65.79;101175.88;5093160;28;20355;-65
2023/12/08 02:07:11;;;;;;;14.80;7.18;;;;;;;-10.62;65.56;101180.91;5093627;28;20046;-63
2023/12/08 02:09:36;;;;;;;12.90;7.20;;;;;;;-10.63;65.59;101172.38;5106479;28;20040;-64
2023/12/08 02:12:03;;;;;;;13.60;6.78;;;;;;;-10.64;65.39;101178.41;5095421;28;20050;-65
2023/12/08 02:14:28;;;;;;;14.95;8.73;;;;;;;-10.60;65.30;101177.38;5113948;28;20055;-64
2023/12/08 02:17:02;;;;;;;18.00;6.43;;;;;;;-10.62;65.35;101174.03;5102556;28;20178;-63
2023/12/08 02:19:29;;;;;;;8.50;5.28;;;;;;;-10.71;64.99;101169.25;5090847;28;20050;-63
2023/12/08 02:21:54;;;;;;;11.93;6.75;;;;;;;-10.75;66.17;101165.16;5104907;28;20035;-63
2023/12/08 02:24:20;;;;;;;10.80;6.43;;;;;;;-10.73;65.90;101172.78;5098825;28;20047;-62
2023/12/08 02:26:47;;;;;;;13.10;6.60;;;;;;;-10.75;65.64;101170.28;5085915;28;20074;-63
2023/12/08 02:29:12;;;;;;;11.20;5.28;;;;;;;-10.73;66.26;101180.47;5081818;28;20047;-63
2023/12/08 02:31:45;;;;;;;11.27;5.38;;;;;;;-10.67;65.90;101175.13;5111988;28;20044;-64
2023/12/08 02:34:16;;;;;;;12.85;7.22;;;;;;;-10.64;66.15;101182.72;5111674;28;20036;-63
2023/12/08 02:36:44;;;;;;;11.73;6.75;;;;;;;-10.69;65.55;101179.47;5100636;28;20041;-64
2023/12/08 02:39:10;;;;;;;12.35;6.20;;;;;;;-10.69;66.17;101174.34;5074005;28;20330;-63
2023/12/08 02:41:36;;;;;;;14.75;6.93;;;;;;;-10.70;66.31;101176.06;5113018;28;20512;-63
2023/12/08 02:44:02;;;;;;;9.52;5.13;;;;;;;-10.72;66.22;101169.34;5111754;28;20047;-63
2023/12/08 02:46:27;;;;;;;9.13;5.18;;;;;;;-10.76;66.52;101166.06;5083482;28;20049;-65
2023/12/08 02:48:53;;;;;;;9.55;5.70;;;;;;;-10.76;66.39;101174.56;5071559;28;20059;-63
2023/12/08 02:51:18;;;;;;;5.57;3.67;;;;;;;-10.86;66.59;101180.09;5105847;28;20047;-62
2023/12/08 02:53:44;;;;;;;12.55;5.97;;;;;;;-10.84;67.53;101166.34;5113309;28;20109;-63
2023/12/08 02:56:10;;;;;;;14.27;6.38;;;;;;;-10.82;67.11;101177.38;5102523;28;20101;-65
2023/12/08 02:58:35;;;;;;;10.68;5.78;;;;;;;-10.90;67.28;101163.19;5065101;28;20040;-62
2023/12/08 03:01:01;;;;;;;13.70;6.70;;;;;;;-10.80;67.35;101169.63;5095600;28;20054;-63
2023/12/08 03:03:27;;;;;;;12.73;6.35;;;;;;;-10.79;67.55;101169.56;5114761;28;20360;-64
2023/12/08 03:05:52;;;;;;;13.45;6.88;;;;;;;-10.79;67.27;101172.13;5099934;28;20071;-60
2023/12/08 03:08:18;;;;;;;13.02;6.65;;;;;;;-10.78;67.33;101170.41;5078597;28;20122;-62
2023/12/08 03:10:45;;;;;;;11.30;4.97;;;;;;;-10.73;67.19;101173.63;5085325;28;20605;-63
2023/12/08 03:13:11;;;;;;;12.70;5.78;;;;;;;-10.64;67.42;101185.25;5075730;28;20105;-62
2023/12/08 03:15:36;;;;;;;15.32;6.32;;;;;;;-10.65;66.80;101176.72;5095741;28;20167;-63
2023/12/08 03:18:02;;;;;;;12.55;5.88;;;;;;;-10.62;67.40;101178.34;5112927;27;20481;-64
2023/12/08 03:20:28;;;;;;;13.40;5.78;;;;;;;-10.78;67.51;101178.09;5112274;28;20047;-64
2023/12/08 03:22:53;;;;;;;12.40;6.32;;;;;;;-10.81;67.87;101178.19;5096208;28;20052;-62
2023/12/08 03:25:19;;;;;;;9.65;6.18;;;;;;;-10.83;67.55;101178.25;5072384;28;20438;-64
2023/12/08 03:27:45;;;;;;;16.13;7.15;;;;;;;-10.70;68.15;101181.22;5108423;28;20044;-62
2023/12/08 03:30:12;;;;;;;10.07;5.78;;;;;;;-10.65;67.70;101175.88;5111391;28;20043;-63
2023/12/08 03:32:38;;;;;;;9.60;5.20;;;;;;;-10.67;67.70;101170.84;5110620;28;20093;-62
2023/12/08 03:35:04;;;;;;;10.85;5.40;;;;;;;-10.76;67.79;101178.88;5110803;28;20043;-61
2023/12/08 03:37:30;;;;;;;17.02;7.50;;;;;;;-10.74;68.18;101177.06;5111959;27;20050;-62
2023/12/08 03:39:55;;;;;;;12.57;6.35;;;;;;;-10.75;67.99;101181.38;5112186;28;20662;-62
2023/12/08 03:42:21;;;;;;;13.43;6.15;;;;;;;-10.75;67.81;101183.09;5110732;28;20039;-62
2023/12/08 03:44:47;;;;;;;15.02;6.80;;;;;;;-10.73;68.10;101177.91;5110769;28;20616;-63
2023/12/08 03:47:12;;;;;;;15.65;7.07;;;;;;;-10.83;68.31;101173.13;5110487;28;20043;-63
2023/12/08 03:49:38;;;;;;;13.25;6.35;;;;;;;-10.86;68.20;101175.78;5111830;28;20055;-64
2023/12/08 03:52:04;;;;;;;13.90;7.18;;;;;;;-10.89;68.38;101178.47;5111788;28;20077;-63
2023/12/08 03:54:29;;;;;;;17.10;8.07;;;;;;;-10.88;68.33;101172.47;5110535;28;20078;-64
2023/12/08 03:56:55;;;;;;;12.52;6.13;;;;;;;-10.85;68.09;101176.63;5111763;28;20389;-63
2023/12/08 03:59:21;;;;;;;11.75;6.40;;;;;;;-10.89;68.64;101178.47;5100421;28;20044;-63
2023/12/08 04:01:46;;;;;;;12.68;7.38;;;;;;;-10.86;68.53;101180.09;5088247;28;20080;-63
2023/12/08 04:04:12;;;;;;;15.60;7.15;;;;;;;-10.92;68.51;101178.59;5088307;28;20082;-62
2023/12/08 04:06:38;;;;;;;13.98;6.22;;;;;;;-10.86;68.44;101182.66;5091217;28;20039;-64
2023/12/08 04:09:05;;;;;;;11.73;6.28;;;;;;;-10.86;68.60;101180.91;5109273;28;20455;-64
2023/12/08 04:11:31;;;;;;;10.88;6.13;;;;;;;-10.77;68.47;101185.69;5109869;28;20055;-64
2023/12/08 04:13:56;;;;;;;15.20;7.25;;;;;;;-10.75;68.82;101183.09;5110111;28;20040;-65
2023/12/08 04:16:22;;;;;;;10.35;5.30;;;;;;;-10.88;68.31;101185.28;5111596;28;20138;-63
2023/12/08 04:18:48;;;;;;;14.77;6.93;;;;;;;-10.78;68.38;101190.91;5110202;28;20039;-65
2023/12/08 04:21:20;;;;;;;14.95;6.38;;;;;;;-10.77;68.47;101195.13;5109464;28;20054;-65
2023/12/08 04:23:45;;;;;;;12.18;6.22;;;;;;;-10.78;68.85;101188.34;5066911;28;20046;-64
2023/12/08 04:26:11;;;;;;;12.90;5.85;;;;;;;-10.69;68.70;101188.00;5110161;28;20433;-66
2023/12/08 04:28:38;;;;;;;12.98;6.43;;;;;;;-10.72;68.43;101187.28;5110485;28;20519;-66
2023/12/08 04:31:05;;;;;;;12.35;7.50;;;;;;;-10.77;68.94;101198.50;5109558;28;20093;-65
2023/12/08 04:33:30;;;;;;;11.95;5.93;;;;;;;-10.70;68.49;101194.03;5111450;28;20051;-65
2023/12/08 04:35:56;;;;;;;10.05;6.93;;;;;;;-10.61;68.17;101197.97;5110045;28;20044;-66
2023/12/08 04:38:21;;;;;;;18.63;7.32;;;;;;;-10.64;68.15;101192.94;5106305;28;20043;-65
2023/12/08 04:40:47;;;;;;;16.60;8.52;;;;;;;-10.70;68.15;101199.16;5094958;28;20047;-65
2023/12/08 04:43:13;;;;;;;13.25;7.45;;;;;;;-10.78;68.57;101198.59;5095130;28;20047;-65
2023/12/08 04:45:39;;;;;;;16.52;7.72;;;;;;;-10.68;68.49;101196.50;5113921;28;20043;-65
2023/12/08 04:48:04;;;;;;;15.65;7.50;;;;;;;-10.65;68.22;101193.81;5115567;28;20047;-65
2023/12/08 04:50:30;;;;;;;13.60;7.13;;;;;;;-10.71;67.70;101192.31;5079732;28;20055;-64
2023/12/08 04:52:56;;;;;;;21.38;9.95;;;;;;;-10.75;67.74;101186.50;5115493;28;20520;-63
2023/12/08 04:55:21;;;;;;;26.20;7.97;;;;;;;-10.82;68.70;101190.19;5114985;28;20044;-64
2023/12/08 04:57:47;;;;;;;18.02;8.52;;;;;;;-10.68;68.34;101197.34;5113447;28;20044;-64
2023/12/08 05:00:13;;;;;;;22.95;10.52;;;;;;;-10.62;68.56;101191.16;5110164;27;20081;-67
2023/12/08 05:02:38;;;;;;;21.30;10.10;;;;;;;-10.57;67.77;101192.66;5090883;28;20036;-64
2023/12/08 05:05:04;;;;;;;14.10;8.13;;;;;;;-10.65;67.82;101189.53;5106320;28;20040;-65
2023/12/08 05:07:30;;;;;;;14.85;7.63;;;;;;;-10.63;67.84;101192.88;5087682;28;20044;-63
2023/12/08 05:09:56;;;;;;;15.15;7.57;;;;;;;-10.75;67.79;101193.34;5051101;28;20085;-65
2023/12/08 05:12:21;;;;;;;16.23;8.98;;;;;;;-10.73;68.64;101199.25;5092112;28;20198;-64
2023/12/08 05:14:47;;;;;;;22.75;10.30;;;;;;;-10.76;68.32;101200.19;5101938;28;20036;-67
2023/12/08 05:17:13;;;;;;;19.92;8.63;;;;;;;-10.74;68.23;101202.69;5100617;28;20446;-64
2023/12/08 05:19:39;;;;;;;16.50;7.97;;;;;;;-10.85;68.34;101202.25;5073802;28;20039;-65
2023/12/08 05:22:05;;;;;;;22.30;9.13;;;;;;;-10.81;68.73;101211.50;5108384;28;20509;-63
2023/12/08 05:24:30;;;;;;;14.90;7.03;;;;;;;-10.78;68.47;101212.22;5095967;28;20055;-63
2023/12/08 05:26:57;;;;;;;20.30;9.82;;;;;;;-10.79;68.63;101213.13;5113856;28;20051;-63
2023/12/08 05:29:23;;;;;;;16.50;7.35;;;;;;;-10.73;68.36;101211.22;5118624;28;20125;-64
2023/12/08 05:31:48;;;;;;;17.48;8.68;;;;;;;-10.78;68.60;101209.66;5119893;28;20040;-65
2023/12/08 05:34:14;;;;;;;18.10;8.57;;;;;;;-10.75;68.56;101211.28;5117898;28;20036;-63
2023/12/08 05:36:39;;;;;;;17.90;8.43;;;;;;;-10.73;68.10;101206.94;5093416;28;20116;-64
2023/12/08 05:39:06;;;;;;;25.17;9.52;;;;;;;-10.76;68.24;101209.63;5094984;28;20086;-63
2023/12/08 05:41:31;;;;;;;16.23;7.85;;;;;;;-10.71;68.22;101210.25;5107597;28;20087;-65
2023/12/08 05:43:57;;;;;;;19.48;8.82;;;;;;;-10.71;68.01;101217.94;5092464;27;20064;-64
2023/12/08 05:46:23;;;;;;;18.02;9.60;;;;;;;-10.72;68.50;101208.59;5081385;28;20054;-63
2023/12/08 05:48:48;;;;;;;14.18;7.40;;;;;;;-10.72;68.48;101200.91;5079516;28;20041;-63
2023/12/08 05:51:14;;;;;;;17.42;8.20;;;;;;;-10.70;68.45;101211.13;5091425;28;20108;-63
2023/12/08 05:53:39;;;;;;;14.88;8.00;;;;;;;-10.70;67.88;101216.25;5084837;28;20041;-63
2023/12/08 05:56:05;;;;;;;15.57;7.68;;;;;;;-10.65;67.93;101204.06;5085509;28;20148;-64
2023/12/08 05:58:31;;;;;;;18.92;8.52;;;;;;;-10.58;67.59;101213.22;5098855;28;20081;-64
2023/12/08 06:00:57;;;;;;;21.45;9.93;;;;;;;-10.64;67.85;101201.47;5096056;28;20036;-65
2023/12/08 06:03:22;;;;;;;18.17;9.18;;;;;;;-10.63;67.33;101195.44;5102712;28;20074;-64
2023/12/08 06:05:48;;;;;;;15.80;8.05;;;;;;;-10.65;67.60;101204.06;5107287;28;20040;-63
2023/12/08 06:08:14;;;;;;;22.17;9.25;;;;;;;-10.76;67.75;101195.06;5093260;28;20393;-64
2023/12/08 06:10:39;;;;;;;23.38;10.57;;;;;;;-10.75;68.27;101203.59;5092920;28;20054;-65
2023/12/08 06:13:05;;;;;;;21.00;9.32;;;;;;;-10.70;68.19;101195.75;5110666;28;20043;-63
2023/12/08 06:15:31;;;;;;;17.23;8.38;;;;;;;-10.64;67.83;101191.22;5056788;28;20048;-64
2023/12/08 06:17:56;;;;;;;17.20;7.57;;;;;;;-10.62;67.75;101197.09;5105071;28;20080;-66
2023/12/08 06:20:22;;;;;;;20.38;8.18;;;;;;;-10.69;67.42;101192.28;5113605;28;20047;-64
2023/12/08 06:22:48;;;;;;;12.80;6.47;;;;;;;-10.84;67.82;101199.66;5111668;28;20054;-65
2023/12/08 06:25:13;;;;;;;19.45;8.75;;;;;;;-10.83;68.47;101188.50;5095087;28;20044;-63
2023/12/08 06:27:39;;;;;;;12.98;6.10;;;;;;;-10.92;68.26;101182.88;5091442;28;20607;-62
2023/12/08 06:30:07;;;;;;;21.85;10.13;;;;;;;-10.84;68.47;101181.72;5071573;28;20421;-63
2023/12/08 06:32:33;;;;;;;23.15;7.55;;;;;;;-10.84;67.39;101181.72;5088175;28;20101;-62
2023/12/08 06:34:59;;;;;;;14.88;7.57;;;;;;;-10.93;68.09;101178.66;5095105;28;20390;-64
2023/12/08 06:37:24;;;;;;;25.13;10.15;;;;;;;-10.92;69.25;101178.59;5099046;28;20036;-62
2023/12/08 06:39:50;;;;;;;16.63;7.95;;;;;;;-10.86;67.86;101178.34;5112061;28;20055;-62
2023/12/08 06:42:16;;;;;;;16.90;8.30;;;;;;;-10.91;67.71;101185.41;5088588;28;20130;-63
2023/12/08 06:44:41;;;;;;;22.52;7.20;;;;;;;-10.92;68.10;101186.28;5094700;28;20039;-62
2023/12/08 06:47:08;;;;;;;12.80;5.68;;;;;;;-10.91;67.74;101180.28;5094704;28;20053;-62
2023/12/08 06:49:33;;;;;;;14.15;7.53;;;;;;;-11.07;68.28;101181.72;5099248;28;20127;-63
2023/12/08 06:51:59;;;;;;;16.17;7.03;;;;;;;-10.99;68.32;101177.16;5093317;28;20046;-61
2023/12/08 06:54:25;;;;;;;17.63;8.60;;;;;;;-11.02;68.35;101183.22;5104648;28;20100;-62
2023/12/08 06:56:50;;;;;;;17.23;8.45;;;;;;;-11.03;68.24;101173.88;5112414;28;20603;-64
2023/12/08 06:59:17;;;;;;;19.30;9.23;;;;;;;-11.03;68.52;101175.56;5112192;28;20400;-63
2023/12/08 07:01:43;;;;;;;17.08;7.10;;;;;;;-10.95;67.93;101181.25;5110910;28;20131;-64
2023/12/08 07:04:09;;;;;;;16.13;7.22;;;;;;;-10.97;67.90;101180.47;5111971;28;20042;-63
2023/12/08 07:06:35;;;;;;;21.15;9.15;;;;;;;-10.96;67.68;101182.16;5112220;28;20044;-62
2023/12/08 07:09:01;;;;;;;18.42;7.53;;;;;;;-10.96;67.48;101183.91;5112751;28;20043;-61
2023/12/08 07:11:26;;;;;;;22.50;9.02;;;;;;;-11.01;68.04;101184.88;5112340;28;20134;-63
2023/12/08 07:13:52;;;;;;;18.77;8.27;;;;;;;-11.01;68.08;101176.38;5110514;28;20131;-62
2023/12/08 07:16:18;;;;;;;16.58;7.40;;;;;;;-11.03;67.81;101173.88;5092380;28;20106;-63
2023/12/08 07:18:43;;;;;;;21.63;10.20;;;;;;;-10.96;68.11;101182.16;5070106;28;20045;-66
2023/12/08 07:21:09;;;;;;;21.20;10.25;;;;;;;-10.92;68.29;101176.03;5088653;28;20478;-65
2023/12/08 07:23:35;;;;;;;18.33;8.27;;;;;;;-10.89;67.42;101170.78;5090008;28;20200;-63
2023/12/08 07:26:02;;;;;;;18.83;8.43;;;;;;;-10.84;67.55;101181.72;5082383;28;20119;-63
2023/12/08 07:28:27;;;;;;;18.40;7.47;;;;;;;-10.92;67.32;101168.34;5089638;28;20048;-64
2023/12/08 07:30:53;;;;;;;15.38;7.63;;;;;;;-10.95;67.42;101170.19;5083025;28;20091;-64
2023/12/08 07:33:19;;;;;;;19.92;9.05;;;;;;;-10.90;67.43;101186.22;5071784;28;20071;-64
2023/12/08 07:35:45;;;;;;;22.70;9.50;;;;;;;-10.90;67.42;101176.81;5097930;28;20357;-64
2023/12/08 07:38:10;;;;;;;23.90;10.07;;;;;;;-10.69;67.31;101179.47;5079748;28;20066;-62
2023/12/08 07:40:36;;;;;;;22.05;9.80;;;;;;;-10.60;66.78;101171.44;5094733;28;20046;-63
2023/12/08 07:43:02;;;;;;;19.58;9.48;;;;;;;-10.62;67.21;101181.72;5111830;28;20149;-63
2023/12/08 07:45:28;;;;;;;20.52;10.40;;;;;;;-10.57;66.50;101171.31;5099053;28;20048;-62
2023/12/08 07:47:54;;;;;;;17.58;7.53;;;;;;;-10.60;66.69;101172.25;5091735;28;20508;-63
2023/12/08 07:50:19;;;;;;;9.00;5.68;;;;;;;-10.75;66.47;101177.97;5092454;28;20062;-63
2023/12/08 07:52:45;;;;;;;14.48;7.05;;;;;;;-10.83;66.86;101170.56;5083195;28;20039;-63
2023/12/08 07:55:11;;;;;;;19.60;9.00;;;;;;;-10.66;66.64;101171.66;5085936;28;20073;-65
2023/12/08 07:57:36;;;;;;;24.67;9.02;;;;;;;-10.62;66.63;101160.41;5069883;28;20071;-64
2023/12/08 08:00:11;;;;;;;10.48;6.20;;;;;;;-10.65;66.59;101171.59;5095932;28;20054;-63
2023/12/08 08:02:37;;;;;;;17.33;7.35;;;;;;;-10.65;66.73;101173.31;5069662;28;20360;-62
2023/12/08 08:05:04;;;;;;;17.98;7.55;;;;;;;-10.57;66.23;101167.00;5087455;28;20035;-63
2023/12/08 08:07:31;;;;;;;20.33;8.05;;;;;;;-10.49;66.27;101171.88;5095411;28;20040;-63
2023/12/08 08:09:56;;;;;;;18.95;8.35;;;;;;;-10.46;66.00;101164.06;5083127;28;20039;-62
2023/12/08 08:12:22;;;;;;;18.27;9.30;;;;;;;-10.40;65.67;101168.94;5101087;28;20524;-62
2023/12/08 08:14:48;;;;;;;20.95;9.18;;;;;;;-10.35;65.82;101164.47;5059536;28;20043;-64
2023/12/08 08:17:14;;;;;;;20.60;9.00;;;;;;;-10.23;65.93;101165.69;5089809;28;20117;-62
2023/12/08 08:19:41;;;;;;;18.25;8.10;;;;;;;-10.28;65.16;101162.50;5092064;28;20531;-62
2023/12/08 08:22:07;;;;;;;19.92;9.00;;;;;;;-10.27;65.35;101163.31;5092541;28;20024;-61
2023/12/08 08:24:33;;;;;;;16.08;7.38;;;;;;;-10.19;65.80;101167.22;5075633;28;20043;-62
2023/12/08 08:26:58;;;;;;;11.68;6.05;;;;;;;-10.26;65.58;101154.72;5095700;28;20039;-63
2023/12/08 08:29:24;;;;;;;17.33;9.18;;;;;;;-10.23;65.40;101152.88;5109746;28;20093;-62
2023/12/08 08:31:52;;;;;;;18.67;8.98;;;;;;;-10.23;65.33;101157.13;5107973;28;20571;-62
2023/12/08 08:34:18;;;;;;;20.98;9.35;;;;;;;-10.32;64.57;101154.09;5092188;28;20110;-61
2023/12/08 08:36:44;;;;;;;18.70;10.45;;;;;;;-10.31;65.71;101144.66;5093467;28;20035;-62
2023/12/08 08:39:10;;;;;;;18.77;10.07;;;;;;;-10.08;65.36;101153.97;5111688;28;20036;-63
2023/12/08 08:41:36;;;;;;;20.00;9.40;;;;;;;-9.86;64.86;101156.47;5086491;28;20127;-64
2023/12/08 08:44:04;;;;;;;21.10;8.32;;;;;;;-9.77;64.53;101145.84;5080752;28;20094;-62
2023/12/08 08:46:31;;;;;;;17.63;9.05;;;;;;;-9.70;64.21;101144.69;5037365;28;20082;-64
2023/12/08 08:48:57;;;;;;;20.30;9.90;;;;;;;-9.58;63.97;101145.91;5110070;28;20138;-64
2023/12/08 08:51:23;;;;;;;23.30;11.02;;;;;;;-9.34;64.34;101141.44;5100592;28;20484;-63
2023/12/08 08:53:50;;;;;;;23.85;10.85;;;;;;;-9.22;63.63;101135.75;5088294;28;20409;-63
2023/12/08 08:56:16;;;;;;;23.38;10.65;;;;;;;-8.97;62.55;101132.09;5086318;28;20063;-61
2023/12/08 08:58:42;;;;;;;21.63;10.20;;;;;;;-8.77;61.85;101126.03;5104324;28;20476;-63
2023/12/08 09:01:08;;;;;;;18.92;9.73;;;;;;;-8.65;62.07;101132.34;5111190;28;20070;-62
2023/12/08 09:03:34;;;;;;;18.45;9.77;;;;;;;-8.64;61.76;101126.31;5095106;28;20496;-64
2023/12/08 09:05:59;;;;;;;16.00;8.27;;;;;;;-8.65;61.20;101130.59;5089192;28;20086;-63
2023/12/08 09:08:26;;;;;;;18.38;10.52;;;;;;;-8.65;61.67;101140.88;5093476;28;20036;-61
2023/12/08 09:10:52;;;;;;;21.05;9.07;;;;;;;-8.64;59.94;101134.03;5086790;28;20086;-63
2023/12/08 09:13:18;;;;;;;22.55;8.65;;;;;;;-8.70;60.94;101127.44;5090472;28;20047;-62
2023/12/08 09:15:44;;;;;;;20.55;9.07;;;;;;;-8.89;60.71;101124.03;5084056;28;20059;-64
2023/12/08 09:18:10;;;;;;;21.05;9.63;;;;;;;-8.96;60.58;101120.94;5078453;28;20094;-62
2023/12/08 09:20:36;;;;;;;20.70;9.63;;;;;;;-9.00;60.70;101122.81;5106456;28;20139;-64
2023/12/08 09:23:02;;;;;;;15.77;7.38;;;;;;;-9.10;60.80;101126.69;5075520;28;20028;-62
2023/12/08 09:25:28;;;;;;;21.00;9.52;;;;;;;-9.18;62.16;101119.31;5110319;28;20052;-63
2023/12/08 09:27:54;;;;;;;20.83;9.98;;;;;;;-9.10;61.22;101129.25;5098337;27;20032;-63
2023/12/08 09:30:19;;;;;;;18.92;9.20;;;;;;;-9.17;62.12;101130.44;5095783;28;20044;-62
2023/12/08 09:32:45;;;;;;;16.92;8.23;;;;;;;-9.15;62.31;101123.47;5054730;28;20387;-63
2023/12/08 09:35:11;;;;;;;23.73;10.73;;;;;;;-9.09;62.21;101130.91;5061066;28;20040;-62
2023/12/08 09:37:37;;;;;;;22.77;9.50;;;;;;;-9.07;61.81;101123.16;5083193;28;20047;-64
2023/12/08 09:40:05;;;;;;;16.27;8.75;;;;;;;-9.06;61.51;101130.75;5094961;28;20038;-64
2023/12/08 09:42:58;;;;;;;18.45;7.60;;;;;;;-9.20;61.93;101120.31;5113909;28;20037;-61
2023/12/08 09:45:24;;;;;;;16.25;8.82;;;;;;;-9.36;61.85;101120.13;5097480;28;20087;-63
2023/12/08 09:47:53;;;;;;;17.88;8.10;;;;;;;-9.51;61.82;101107.97;5088446;28;20047;-63
2023/12/08 09:50:19;;;;;;;16.17;8.15;;;;;;;-9.54;62.16;101105.53;5098019;28;20064;-63
2023/12/08 09:52:45;;;;;;;17.75;8.45;;;;;;;-9.51;62.76;101108.78;5089763;28;20036;-63
2023/12/08 09:55:13;;;;;;;19.90;9.43;;;;;;;-9.56;62.34;101107.31;5077425;28;20047;-62
2023/12/08 09:57:45;;;;;;;;;;;;;;;-9.65;62.79;101101.69;5080632;28;20087;-63
2023/12/08 10:00:13;;;;;;;17.95;7.07;;;;;;;-9.63;62.25;101101.63;5091140;28;20178;-63
2023/12/08 10:02:39;;;;;;;13.20;6.75;;;;;;;-9.72;63.30;101099.47;5073414;28;20036;-64
2023/12/08 10:05:06;;;;;;;21.15;8.50;;;;;;;-9.80;62.94;101086.13;5069010;28;20098;-61
2023/12/08 10:07:33;;;;;;;16.20;7.63;;;;;;;-9.75;63.73;101100.41;5071112;28;20044;-64
2023/12/08 10:10:00;;;;;;;17.95;8.43;;;;;;;-9.73;63.51;101098.63;5084023;28;20047;-64
2023/12/08 10:12:25;;;;;;;21.85;9.10;;;;;;;-9.72;63.24;101097.72;5060572;28;20546;-63
2023/12/08 10:14:53;;;;;;;14.85;7.63;;;;;;;-9.75;63.13;101100.41;5096220;28;20036;-65
2023/12/08 10:17:20;;;;;;;17.10;8.18;;;;;;;-9.86;63.14;101098.28;5088338;28;20044;-63
2023/12/08 10:19:46;;;;;;;15.18;7.85;;;;;;;-9.85;63.46;101094.84;5070374;28;20044;-63
2023/12/08 10:22:12;;;;;;;17.00;8.50;;;;;;;-9.85;63.52;101087.16;5103706;28;20044;-62
2023/12/08 10:24:39;;;;;;;21.23;8.85;;;;;;;-9.90;64.02;101088.25;5093116;28;20086;-63
2023/12/08 10:27:04;;;;;;;14.13;7.20;;;;;;;-9.86;63.98;101084.63;5097448;28;20551;-63
2023/12/08 10:29:31;;;;;;;16.83;8.52;;;;;;;-9.91;64.91;101079.72;5078988;28;20076;-63
2023/12/08 10:31:58;;;;;;;10.15;6.18;;;;;;;-9.89;64.07;101077.06;5095143;28;20497;-63
2023/12/08 10:34:25;;;;;;;16.85;9.05;;;;;;;-9.75;64.43;101079.06;5058596;28;20043;-62
2023/12/08 10:36:52;;;;;;;15.80;8.52;;;;;;;-9.86;64.73;101075.22;5100976;28;20090;-61
2023/12/08 10:39:18;;;;;;;19.05;8.77;;;;;;;-9.83;64.63;101080.22;5070935;28;20056;-63
2023/12/08 10:41:45;;;;;;;15.85;7.78;;;;;;;-9.75;65.14;101072.19;5111002;28;20054;-62
2023/12/08 10:44:12;;;;;;;19.63;9.55;;;;;;;-9.69;64.24;101074.50;5096544;28;20455;-65
2023/12/08 10:46:38;;;;;;;14.55;7.43;;;;;;;-9.60;64.88;101075.81;5101437;28;20048;-61
2023/12/08 10:49:10;;;;;;;20.00;10.25;;;;;;;-9.56;65.44;101073.94;5088534;28;20582;-62
2023/12/08 10:51:41;;;;;;;19.23;9.38;;;;;;;-9.56;63.81;101068.81;5039800;28;20505;-62
2023/12/08 10:54:10;;;;;;;18.92;7.57;;;;;;;-9.69;63.61;101071.09;5106822;28;20138;-63
2023/12/08 10:56:36;;;;;;;18.70;9.52;;;;;;;-9.62;64.72;101073.34;5109373;28;20076;-63
2023/12/08 10:59:06;;;;;;;24.25;8.93;;;;;;;-9.57;63.84;101070.56;5070518;28;20135;-64
2023/12/08 11:01:33;;;;;;;22.95;6.93;;;;;;;-9.65;63.92;101070.88;5094263;28;20027;-63
2023/12/08 11:04:03;;;;;;;21.30;9.07;;;;;;;-9.64;63.22;101064.88;5097469;28;20056;-63
2023/12/08 11:06:33;;;;;;;16.35;8.98;;;;;;;-9.63;64.24;101069.09;5093796;28;20035;-60